Allendale, Massachusetts
Current Conditions -  °F | °C
As of 11:54 PM on Sunday 21 Dec 2014 (Local Time) from KPSF Reporting Station
Overcast Overcast  
Wind Chill: 29°   Ceiling: 1400
Heat Index: 29°   Visibility: 8mi
Dew Point: 27°   Wind: 3mph
Humidity: 92%   Direction: 30°NNE
Pressure: 30.29"   Gusts: NA
Location:  42.4608°N, 73.282°W
Report Text: KPSF 220454Z AUTO 03003KT 8SM OVC014 M02/M03 A3029 RMK AO2 SNB0355E04 SLP270 P0000 T10171028 410061033
Loading
Personal Weather Stations






























Interactive Weather Map New forecast layout! Learn more

10-Day Weather Forecast

Advertisements
Track Severe Weather on mobile